Tylersville, Pennsylvania
Current Conditions -  °F | °C
As of 9:55 PM on Thursday 27 Nov 2014 (Local Time) from KUNV Reporting Station
Overcast Overcast  
Wind Chill: 20°   Ceiling: 8500
Heat Index: 30°   Visibility: 10mi
Dew Point: 24°   Wind: 13mph
Humidity: 77%   Direction: 270°W
Pressure: 30.1"   Gusts: 20mph
Location:  40.99°N, 77.42°W
Report Text: KUNV 280255Z AUTO 27011G17KT 10SM OVC085 M01/M04 A3010 RMK AO2 T10101045
Loading
Personal Weather Stations






























Interactive Weather Map New forecast layout! Learn more

10-Day Weather Forecast

Advertisements
Track Severe Weather on mobile